createdAt,value
2023-11-30T00:02:24.581Z,100.00
2023-11-30T00:04:52.382Z,100.00
2023-11-30T00:07:18.778Z,100.00
2023-11-30T00:09:45.254Z,100.00
2023-11-30T00:12:11.699Z,100.00
2023-11-30T00:14:38.080Z,100.00
2023-11-30T00:17:04.476Z,100.00
2023-11-30T00:19:30.854Z,100.00
2023-11-30T00:21:58.571Z,100.00
2023-11-30T00:24:25.028Z,100.00
2023-11-30T00:26:51.449Z,100.00
2023-11-30T00:29:17.853Z,100.00
2023-11-30T00:31:44.452Z,98.10
2023-11-30T00:34:11.013Z,97.00
2023-11-30T00:36:37.406Z,96.29
2023-11-30T00:39:05.252Z,96.73
2023-11-30T00:41:31.681Z,96.29
2023-11-30T00:43:58.113Z,94.84
2023-11-30T00:46:24.616Z,97.32
2023-11-30T00:48:51.081Z,99.15
2023-11-30T00:51:17.479Z,98.33
2023-11-30T00:53:43.993Z,96.60
2023-11-30T00:56:12.277Z,97.06
2023-11-30T00:58:38.772Z,96.45
2023-11-30T01:01:05.546Z,97.86
2023-11-30T01:03:32.140Z,94.95
2023-11-30T01:05:58.588Z,94.20
2023-11-30T01:08:24.990Z,93.99
2023-11-30T01:10:51.408Z,93.11
2023-11-30T01:13:19.106Z,94.84
2023-11-30T01:15:45.732Z,94.44
2023-11-30T01:18:12.331Z,92.88
2023-11-30T01:20:42.726Z,92.20
2023-11-30T01:23:09.173Z,95.17
2023-11-30T01:25:35.641Z,96.85
2023-11-30T01:28:02.050Z,92.92
2023-11-30T01:30:29.856Z,91.81
2023-11-30T01:32:56.491Z,92.52
2023-11-30T01:35:22.914Z,90.97
2023-11-30T01:37:49.320Z,92.23
2023-11-30T01:40:16.014Z,91.11
2023-11-30T01:42:42.735Z,91.16
2023-11-30T01:45:10.521Z,93.00
2023-11-30T01:47:38.516Z,90.92
2023-11-30T01:50:06.181Z,94.45
2023-11-30T01:52:32.806Z,95.34
2023-11-30T01:55:02.889Z,97.39
2023-11-30T01:57:30.187Z,95.60
2023-11-30T01:59:57.246Z,93.46
2023-11-30T02:02:24.332Z,93.70
2023-11-30T02:04:53.950Z,96.49
2023-11-30T02:07:20.562Z,94.29
2023-11-30T02:09:47.197Z,92.55
2023-11-30T02:12:13.654Z,92.52
2023-11-30T02:14:40.103Z,92.59
2023-11-30T02:17:06.514Z,94.29
2023-11-30T02:19:32.913Z,95.65
2023-11-30T02:22:00.659Z,93.90
2023-11-30T02:24:27.042Z,93.99
2023-11-30T02:26:53.606Z,93.66
2023-11-30T02:29:20.171Z,93.91
2023-11-30T02:31:46.745Z,94.80
2023-11-30T02:34:13.295Z,94.67
2023-11-30T02:36:39.724Z,95.03
2023-11-30T02:39:07.504Z,95.40
2023-11-30T02:41:33.968Z,95.28
2023-11-30T02:44:00.487Z,94.57
2023-11-30T02:46:26.912Z,96.46
2023-11-30T02:48:53.432Z,96.07
2023-11-30T02:51:19.889Z,98.60
2023-11-30T02:53:46.289Z,98.11
2023-11-30T02:56:14.105Z,99.40
2023-11-30T02:58:40.646Z,96.92
2023-11-30T03:01:07.319Z,95.75
2023-11-30T03:03:33.809Z,96.61
2023-11-30T03:06:00.408Z,95.32
2023-11-30T03:08:26.840Z,96.51
2023-11-30T03:10:53.804Z,98.09
2023-11-30T03:13:21.634Z,95.84
2023-11-30T03:15:48.008Z,96.68
2023-11-30T03:18:14.579Z,97.14
2023-11-30T03:20:41.112Z,96.50
2023-11-30T03:23:07.569Z,97.40
2023-11-30T03:25:34.053Z,97.16
2023-11-30T03:28:00.639Z,95.53
2023-11-30T03:30:28.733Z,95.50
2023-11-30T03:32:56.409Z,97.68
2023-11-30T03:35:22.941Z,100.00
2023-11-30T03:37:49.666Z,98.44
2023-11-30T03:40:16.171Z,96.88
2023-11-30T03:42:42.781Z,96.34
2023-11-30T03:45:10.284Z,94.74
2023-11-30T03:47:38.150Z,96.69
2023-11-30T03:50:05.383Z,96.77
2023-11-30T03:52:31.828Z,96.22
2023-11-30T03:54:58.262Z,94.91
2023-11-30T03:57:24.713Z,93.99
2023-11-30T03:59:51.338Z,94.81
2023-11-30T04:02:18.163Z,93.38
2023-11-30T04:04:46.080Z,93.50
2023-11-30T04:07:12.539Z,93.72
2023-11-30T04:09:39.116Z,97.79
2023-11-30T04:12:05.968Z,98.41
2023-11-30T04:14:32.423Z,99.53
2023-11-30T04:17:02.405Z,99.09
2023-11-30T04:19:30.777Z,100.00
2023-11-30T04:21:58.504Z,97.90
2023-11-30T04:24:24.913Z,96.27
2023-11-30T04:26:52.882Z,94.83
2023-11-30T04:29:19.338Z,93.74
2023-11-30T04:31:45.746Z,95.08
2023-11-30T04:34:12.299Z,96.90
2023-11-30T04:36:38.731Z,98.14
2023-11-30T04:39:06.482Z,96.73
2023-11-30T04:41:32.902Z,95.48
2023-11-30T04:43:59.342Z,94.60
2023-11-30T04:46:25.774Z,92.65
2023-11-30T04:48:52.579Z,92.13
2023-11-30T04:51:19.098Z,92.64
2023-11-30T04:53:45.525Z,93.23
2023-11-30T04:56:13.383Z,97.37
2023-11-30T04:58:39.805Z,99.01
2023-11-30T05:01:06.453Z,95.88
2023-11-30T05:03:33.157Z,96.01
2023-11-30T05:05:59.726Z,95.55
2023-11-30T05:08:26.283Z,93.59
2023-11-30T05:10:52.707Z,93.45
2023-11-30T05:13:20.462Z,92.75
2023-11-30T05:15:47.617Z,96.44
2023-11-30T05:18:14.176Z,93.01
2023-11-30T05:20:40.656Z,92.29
2023-11-30T05:23:07.247Z,92.23
2023-11-30T05:25:33.798Z,93.43
2023-11-30T05:28:00.440Z,92.88
2023-11-30T05:30:29.001Z,91.61
2023-11-30T05:32:55.575Z,90.65
2023-11-30T05:35:22.114Z,89.65
2023-11-30T05:37:48.514Z,90.26
2023-11-30T05:40:15.347Z,91.56
2023-11-30T05:42:41.765Z,92.32
2023-11-30T05:45:09.358Z,90.44
2023-11-30T05:47:37.261Z,90.93
2023-11-30T05:50:04.043Z,89.45
2023-11-30T05:52:30.512Z,96.96
2023-11-30T05:54:57.018Z,95.21
2023-11-30T05:57:23.496Z,92.67
2023-11-30T05:59:50.069Z,92.36
2023-11-30T06:02:16.544Z,91.00
2023-11-30T06:04:50.840Z,92.39
2023-11-30T06:07:17.548Z,91.56
2023-11-30T06:09:43.941Z,93.09
2023-11-30T06:12:10.388Z,92.66
2023-11-30T06:14:36.834Z,90.34
2023-11-30T06:17:03.459Z,88.83
2023-11-30T06:19:30.051Z,87.54
2023-11-30T06:21:57.848Z,87.63
2023-11-30T06:24:24.277Z,86.37
2023-11-30T06:26:50.873Z,85.91
2023-11-30T06:29:17.352Z,85.07
2023-11-30T06:31:43.781Z,85.46
2023-11-30T06:34:10.191Z,84.91
2023-11-30T06:36:36.608Z,85.01
2023-11-30T06:39:04.389Z,85.05
2023-11-30T06:41:30.861Z,87.41
2023-11-30T06:43:57.477Z,87.68
2023-11-30T06:46:24.475Z,92.66
2023-11-30T06:48:51.129Z,94.78
2023-11-30T06:51:18.061Z,94.27
2023-11-30T06:53:44.751Z,92.08
2023-11-30T06:56:13.200Z,93.49
2023-11-30T06:58:40.176Z,95.73
2023-11-30T07:01:07.022Z,93.37
2023-11-30T07:03:33.740Z,92.56
2023-11-30T07:06:10.325Z,94.86
2023-11-30T07:08:36.889Z,96.68
2023-11-30T07:11:07.095Z,92.79
2023-11-30T07:13:34.923Z,90.98
2023-11-30T07:16:01.596Z,90.73
2023-11-30T07:18:28.189Z,92.92
2023-11-30T07:20:54.738Z,96.05
2023-11-30T07:23:21.187Z,94.36
2023-11-30T07:25:47.688Z,93.83
2023-11-30T07:28:14.138Z,91.16
2023-11-30T07:30:42.069Z,90.19
2023-11-30T07:33:08.887Z,90.50
2023-11-30T07:35:36.561Z,91.98
2023-11-30T07:38:03.008Z,94.92
2023-11-30T07:40:29.428Z,95.14
2023-11-30T07:42:55.946Z,92.43
2023-11-30T07:45:23.941Z,93.20
2023-11-30T07:47:51.869Z,95.55
2023-11-30T07:50:18.365Z,95.51
2023-11-30T07:52:44.785Z,95.19
2023-11-30T07:55:11.355Z,94.64
2023-11-30T07:57:37.997Z,92.25
2023-11-30T08:00:05.866Z,93.28
2023-11-30T08:02:32.278Z,92.95
2023-11-30T08:05:00.041Z,92.80
2023-11-30T08:07:26.502Z,93.35
2023-11-30T08:09:53.035Z,92.77
2023-11-30T08:12:19.763Z,92.03
2023-11-30T08:14:46.182Z,92.81
2023-11-30T08:17:12.668Z,88.75
2023-11-30T08:19:39.125Z,89.62
2023-11-30T08:22:06.964Z,93.32
2023-11-30T08:24:33.588Z,95.61
2023-11-30T08:27:00.025Z,98.09
2023-11-30T08:29:26.495Z,100.00
2023-11-30T08:31:52.926Z,100.00
2023-11-30T08:34:19.372Z,99.21
2023-11-30T08:36:45.834Z,98.74
2023-11-30T08:39:13.588Z,98.40
2023-11-30T08:41:40.073Z,99.23
2023-11-30T08:44:06.558Z,100.00
2023-11-30T08:46:33.012Z,100.00
2023-11-30T08:48:59.557Z,97.16
2023-11-30T08:51:26.032Z,95.06
2023-11-30T08:53:52.478Z,94.17
2023-11-30T08:56:20.442Z,90.59
2023-11-30T08:58:46.864Z,89.13
2023-11-30T09:01:13.314Z,87.66
2023-11-30T09:03:40.910Z,87.46
2023-11-30T09:06:09.435Z,92.83
2023-11-30T09:08:35.926Z,90.83
2023-11-30T09:11:02.359Z,95.60
2023-11-30T09:13:30.176Z,98.96
2023-11-30T09:15:56.658Z,93.14
2023-11-30T09:18:23.233Z,97.38
2023-11-30T09:20:49.712Z,100.00
2023-11-30T09:23:16.120Z,100.00
2023-11-30T09:25:42.811Z,100.00
2023-11-30T09:28:09.556Z,100.00
2023-11-30T09:30:37.379Z,100.00
2023-11-30T09:33:03.941Z,100.00
2023-11-30T09:35:30.425Z,100.00
2023-11-30T09:37:59.365Z,100.00
2023-11-30T09:40:27.231Z,100.00
2023-11-30T09:42:53.707Z,100.00
2023-11-30T09:45:22.166Z,100.00
2023-11-30T09:47:50.209Z,100.00
2023-11-30T09:50:16.670Z,100.00
2023-11-30T09:52:43.444Z,100.00
2023-11-30T09:55:11.821Z,100.00
2023-11-30T09:57:39.088Z,100.00
2023-11-30T10:00:06.796Z,100.00
2023-11-30T10:02:33.376Z,100.00
2023-11-30T10:05:01.138Z,100.00
2023-11-30T10:07:29.400Z,100.00
2023-11-30T10:09:55.904Z,100.00
2023-11-30T10:12:22.379Z,100.00
2023-11-30T10:14:48.821Z,100.00
2023-11-30T10:17:15.512Z,100.00
2023-11-30T10:19:42.246Z,100.00
2023-11-30T10:22:10.201Z,100.00
2023-11-30T10:24:36.702Z,100.00
2023-11-30T10:27:07.530Z,100.00
2023-11-30T10:29:41.227Z,96.70
2023-11-30T10:32:10.592Z,95.51
2023-11-30T10:34:43.767Z,95.39
2023-11-30T10:37:12.216Z,96.69
2023-11-30T10:39:43.804Z,97.22
2023-11-30T10:42:13.991Z,96.61
2023-11-30T10:44:43.903Z,97.92
2023-11-30T10:47:10.958Z,100.00
2023-11-30T10:49:37.902Z,100.00
2023-11-30T10:52:05.924Z,100.00
2023-11-30T10:54:38.541Z,98.73
2023-11-30T10:57:05.518Z,92.65
2023-11-30T10:59:32.493Z,92.66
2023-11-30T11:01:59.525Z,92.54
2023-11-30T11:04:27.674Z,94.59
2023-11-30T11:07:01.051Z,98.20
2023-11-30T11:09:27.557Z,98.78
2023-11-30T11:12:02.199Z,98.34
2023-11-30T11:14:32.410Z,100.00
2023-11-30T11:17:03.995Z,100.00
2023-11-30T11:19:31.507Z,97.56
2023-11-30T11:21:57.906Z,96.76
2023-11-30T11:24:24.406Z,100.00
2023-11-30T11:26:57.966Z,100.00
2023-11-30T11:29:30.959Z,100.00
2023-11-30T11:32:05.796Z,100.00
2023-11-30T11:34:32.227Z,100.00
2023-11-30T11:36:58.687Z,100.00
2023-11-30T11:39:25.166Z,100.00
2023-11-30T11:41:52.294Z,100.00
2023-11-30T11:44:21.444Z,100.00
2023-11-30T11:46:49.067Z,100.00
2023-11-30T11:49:15.550Z,100.00
2023-11-30T11:51:43.386Z,100.00
2023-11-30T11:54:16.779Z,100.00
2023-11-30T11:56:46.657Z,100.00
2023-11-30T11:59:13.169Z,100.00
2023-11-30T12:01:41.004Z,95.92
2023-11-30T12:04:07.606Z,96.35
2023-11-30T12:06:34.152Z,94.10
2023-11-30T12:09:10.633Z,91.61
2023-11-30T12:11:39.212Z,95.83
2023-11-30T12:14:05.884Z,93.54
2023-11-30T12:16:32.403Z,92.16
2023-11-30T12:19:00.327Z,97.50
2023-11-30T12:21:26.872Z,97.04
2023-11-30T12:23:53.397Z,96.73
2023-11-30T12:26:19.815Z,93.93
2023-11-30T12:28:46.227Z,91.50
2023-11-30T12:31:12.747Z,90.47
2023-11-30T12:33:39.318Z,91.53
2023-11-30T12:36:08.051Z,98.01
2023-11-30T12:38:34.508Z,97.16
2023-11-30T12:41:00.936Z,96.81
2023-11-30T12:43:27.330Z,90.68
2023-11-30T12:45:54.078Z,88.83
2023-11-30T12:48:20.721Z,91.75
2023-11-30T12:50:48.514Z,92.38
2023-11-30T12:53:16.629Z,94.75
2023-11-30T12:55:43.202Z,94.54
2023-11-30T12:58:09.663Z,95.49
2023-11-30T13:00:36.162Z,97.95
2023-11-30T13:03:02.710Z,95.37
2023-11-30T13:05:29.171Z,94.14
2023-11-30T13:07:56.703Z,92.17
2023-11-30T13:10:24.496Z,93.21
2023-11-30T13:12:50.921Z,96.93
2023-11-30T13:15:18.762Z,97.86
2023-11-30T13:17:45.261Z,97.77
2023-11-30T13:20:12.520Z,97.12
2023-11-30T13:22:40.258Z,95.08
2023-11-30T13:25:06.933Z,96.90
2023-11-30T13:27:34.757Z,94.30
2023-11-30T13:30:01.287Z,99.63
2023-11-30T13:32:28.056Z,99.69
2023-11-30T13:34:54.531Z,98.08
2023-11-30T13:37:20.950Z,99.24
2023-11-30T13:39:47.412Z,100.00
2023-11-30T13:42:13.925Z,100.00
2023-11-30T13:44:41.764Z,100.00
2023-11-30T13:47:08.195Z,100.00
2023-11-30T13:49:34.722Z,100.00
2023-11-30T13:52:01.581Z,100.00
2023-11-30T13:54:28.047Z,100.00
2023-11-30T13:56:54.445Z,100.00
2023-11-30T13:59:20.960Z,100.00
2023-11-30T14:01:48.876Z,100.00
2023-11-30T14:04:15.379Z,100.00
2023-11-30T14:06:42.413Z,97.67
2023-11-30T14:09:09.136Z,95.22
2023-11-30T14:11:35.555Z,97.87
2023-11-30T14:14:02.001Z,98.36
2023-11-30T14:16:28.447Z,98.04
2023-11-30T14:18:56.220Z,94.86
2023-11-30T14:21:22.801Z,96.88
2023-11-30T14:23:49.222Z,100.00
2023-11-30T14:26:15.872Z,100.00
2023-11-30T14:28:42.316Z,100.00
2023-11-30T14:31:09.070Z,100.00
2023-11-30T14:33:35.511Z,100.00
2023-11-30T14:36:03.609Z,100.00
2023-11-30T14:38:30.075Z,100.00
2023-11-30T14:40:56.706Z,100.00
2023-11-30T14:43:23.147Z,100.00
2023-11-30T14:45:49.812Z,100.00
2023-11-30T14:48:16.320Z,100.00
2023-11-30T14:50:42.819Z,100.00
2023-11-30T14:53:10.639Z,100.00
2023-11-30T14:55:37.105Z,100.00
2023-11-30T14:58:03.645Z,100.00
2023-11-30T15:00:30.111Z,100.00
2023-11-30T15:02:56.538Z,100.00
2023-11-30T15:05:22.949Z,100.00
2023-11-30T15:07:49.332Z,100.00
2023-11-30T15:10:17.087Z,100.00
2023-11-30T15:12:43.578Z,100.00
2023-11-30T15:15:14.357Z,100.00
2023-11-30T15:17:43.449Z,100.00
2023-11-30T15:20:11.167Z,100.00
2023-11-30T15:22:37.696Z,100.00
2023-11-30T15:25:05.089Z,100.00
2023-11-30T15:27:33.101Z,100.00
2023-11-30T15:29:59.620Z,100.00
2023-11-30T15:32:26.005Z,100.00
2023-11-30T15:34:52.478Z,100.00
2023-11-30T15:37:18.912Z,100.00
2023-11-30T15:39:45.429Z,100.00
2023-11-30T15:42:11.980Z,100.00
2023-11-30T15:44:42.233Z,100.00
2023-11-30T15:47:08.679Z,100.00
2023-11-30T15:49:35.124Z,100.00
2023-11-30T15:52:01.519Z,100.00
2023-11-30T15:54:28.000Z,100.00
2023-11-30T15:56:54.449Z,100.00
2023-11-30T15:59:20.878Z,100.00
2023-11-30T16:01:48.695Z,100.00
2023-11-30T16:04:15.552Z,100.00
2023-11-30T16:06:42.014Z,100.00
2023-11-30T16:09:10.801Z,100.00
2023-11-30T16:11:37.346Z,100.00
2023-11-30T16:14:05.036Z,100.00
2023-11-30T16:16:31.501Z,100.00
2023-11-30T16:18:59.407Z,100.00
2023-11-30T16:21:27.846Z,100.00
2023-11-30T16:23:54.852Z,100.00
2023-11-30T16:26:23.605Z,100.00
2023-11-30T16:28:50.029Z,100.00
2023-11-30T16:31:16.650Z,100.00
2023-11-30T16:33:43.245Z,100.00
2023-11-30T16:36:11.751Z,100.00
2023-11-30T16:38:39.876Z,100.00
2023-11-30T16:41:09.313Z,100.00
2023-11-30T16:43:35.760Z,100.00
2023-11-30T16:46:02.547Z,100.00
2023-11-30T16:48:29.219Z,100.00
2023-11-30T16:50:55.696Z,100.00
2023-11-30T16:53:25.080Z,100.00
2023-11-30T16:55:52.907Z,100.00
2023-11-30T16:58:19.284Z,100.00
2023-11-30T17:00:45.710Z,100.00
2023-11-30T17:03:12.152Z,100.00
2023-11-30T17:05:39.279Z,100.00
2023-11-30T17:08:05.722Z,100.00
2023-11-30T17:10:33.465Z,100.00
2023-11-30T17:12:59.892Z,100.00
2023-11-30T17:15:27.516Z,100.00
2023-11-30T17:17:53.959Z,100.00
2023-11-30T17:20:20.455Z,100.00
2023-11-30T17:22:46.904Z,100.00
2023-11-30T17:25:13.381Z,100.00
2023-11-30T17:27:41.144Z,100.00
2023-11-30T17:30:08.405Z,100.00
2023-11-30T17:32:34.965Z,100.00
2023-11-30T17:35:01.894Z,100.00
2023-11-30T17:37:28.464Z,100.00
2023-11-30T17:39:55.002Z,100.00
2023-11-30T17:42:21.520Z,100.00
2023-11-30T17:44:49.264Z,100.00
2023-11-30T17:47:15.709Z,100.00
2023-11-30T17:49:42.089Z,100.00
2023-11-30T17:52:08.502Z,100.00
2023-11-30T17:54:34.949Z,100.00
2023-11-30T17:57:01.395Z,100.00
2023-11-30T17:59:27.804Z,100.00
2023-11-30T18:01:55.707Z,100.00
2023-11-30T18:04:22.154Z,100.00
2023-11-30T18:06:48.583Z,100.00
2023-11-30T18:09:15.331Z,100.00
2023-11-30T18:11:41.796Z,100.00
2023-11-30T18:14:08.201Z,100.00
2023-11-30T18:16:34.712Z,100.00
2023-11-30T18:19:02.511Z,100.00
2023-11-30T18:21:30.189Z,100.00
2023-11-30T18:23:56.683Z,100.00
2023-11-30T18:26:23.066Z,100.00
2023-11-30T18:28:49.588Z,100.00
2023-11-30T18:31:20.753Z,100.00
2023-11-30T18:33:49.738Z,100.00
2023-11-30T18:36:17.628Z,100.00
2023-11-30T18:38:50.415Z,100.00
2023-11-30T18:41:18.371Z,100.00
2023-11-30T18:43:44.822Z,100.00
2023-11-30T18:46:13.367Z,100.00
2023-11-30T18:48:40.087Z,100.00
2023-11-30T18:51:07.320Z,100.00
2023-11-30T18:53:35.132Z,100.00
2023-11-30T18:56:02.671Z,100.00
2023-11-30T18:58:29.079Z,100.00
2023-11-30T19:00:55.648Z,100.00
2023-11-30T19:03:22.455Z,100.00
2023-11-30T19:05:49.017Z,100.00
2023-11-30T19:08:15.440Z,100.00
2023-11-30T19:10:43.549Z,100.00
2023-11-30T19:13:10.091Z,100.00
2023-11-30T19:15:36.517Z,100.00
2023-11-30T19:18:03.059Z,100.00
2023-11-30T19:20:29.537Z,100.00
2023-11-30T19:22:55.940Z,100.00
2023-11-30T19:25:22.418Z,100.00
2023-11-30T19:27:50.249Z,100.00
2023-11-30T19:30:16.916Z,100.00
2023-11-30T19:32:43.380Z,100.00
2023-11-30T19:35:10.102Z,100.00
2023-11-30T19:37:36.638Z,100.00
2023-11-30T19:40:03.575Z,100.00
2023-11-30T19:42:30.028Z,100.00
2023-11-30T19:44:57.817Z,100.00
2023-11-30T19:47:24.469Z,100.00
2023-11-30T19:49:50.978Z,100.00
2023-11-30T19:52:17.381Z,100.00
2023-11-30T19:54:43.826Z,100.00
2023-11-30T19:57:10.235Z,100.00
2023-11-30T19:59:36.636Z,100.00
2023-11-30T20:02:04.908Z,100.00
2023-11-30T20:04:31.433Z,100.00
2023-11-30T20:06:57.994Z,100.00
2023-11-30T20:09:24.515Z,100.00
2023-11-30T20:11:51.045Z,100.00
2023-11-30T20:14:17.538Z,100.00
2023-11-30T20:16:44.137Z,100.00
2023-11-30T20:19:12.142Z,100.00
2023-11-30T20:21:38.699Z,100.00
2023-11-30T20:24:05.814Z,100.00
2023-11-30T20:26:32.194Z,100.00
2023-11-30T20:28:58.585Z,100.00
2023-11-30T20:31:25.032Z,100.00
2023-11-30T20:33:51.636Z,100.00
2023-11-30T20:36:19.398Z,100.00
2023-11-30T20:38:45.850Z,100.00
2023-11-30T20:41:12.297Z,100.00
2023-11-30T20:43:38.674Z,100.00
2023-11-30T20:46:05.628Z,100.00
2023-11-30T20:48:32.281Z,100.00
2023-11-30T20:50:58.786Z,100.00
2023-11-30T20:53:26.656Z,100.00
2023-11-30T20:55:53.044Z,100.00
2023-11-30T20:58:19.623Z,100.00
2023-11-30T21:00:46.103Z,100.00
2023-11-30T21:03:12.606Z,100.00
2023-11-30T21:05:39.068Z,100.00
2023-11-30T21:08:05.729Z,100.00
2023-11-30T21:10:33.477Z,100.00
2023-11-30T21:12:59.959Z,100.00
2023-11-30T21:15:27.894Z,100.00
2023-11-30T21:17:54.421Z,100.00
2023-11-30T21:20:20.996Z,100.00
2023-11-30T21:22:47.468Z,100.00
2023-11-30T21:25:14.017Z,100.00
2023-11-30T21:27:41.818Z,100.00
2023-11-30T21:30:09.194Z,100.00
2023-11-30T21:32:35.634Z,100.00
2023-11-30T21:35:02.135Z,100.00
2023-11-30T21:37:28.612Z,100.00
2023-11-30T21:39:55.110Z,100.00
2023-11-30T21:42:21.550Z,100.00
2023-11-30T21:44:49.281Z,100.00
2023-11-30T21:47:15.705Z,100.00
2023-11-30T21:49:47.035Z,100.00
2023-11-30T21:52:13.570Z,100.00
2023-11-30T21:54:40.022Z,100.00
2023-11-30T21:57:06.431Z,100.00
2023-11-30T21:59:33.012Z,100.00
2023-11-30T22:02:00.936Z,100.00
2023-11-30T22:04:27.550Z,100.00
2023-11-30T22:06:54.068Z,100.00
2023-11-30T22:09:20.542Z,100.00
2023-11-30T22:11:47.000Z,100.00
2023-11-30T22:14:13.458Z,100.00
2023-11-30T22:16:40.123Z,100.00
2023-11-30T22:19:08.061Z,100.00
2023-11-30T22:21:34.576Z,100.00
2023-11-30T22:24:01.016Z,100.00
2023-11-30T22:26:27.507Z,100.00
2023-11-30T22:28:53.996Z,100.00
2023-11-30T22:31:20.401Z,100.00
2023-11-30T22:33:46.911Z,100.00
2023-11-30T22:36:14.787Z,100.00
2023-11-30T22:38:45.887Z,100.00
2023-11-30T22:41:13.074Z,100.00
2023-11-30T22:43:39.623Z,100.00
2023-11-30T22:46:06.308Z,100.00
2023-11-30T22:48:33.784Z,100.00
2023-11-30T22:51:00.403Z,100.00
2023-11-30T22:53:28.119Z,100.00
2023-11-30T22:55:54.739Z,100.00
2023-11-30T22:58:21.306Z,100.00
2023-11-30T23:00:47.924Z,100.00
2023-11-30T23:03:14.534Z,100.00
2023-11-30T23:05:41.483Z,100.00
2023-11-30T23:08:07.917Z,100.00
2023-11-30T23:10:35.704Z,100.00
2023-11-30T23:13:02.313Z,100.00
2023-11-30T23:15:28.898Z,100.00
2023-11-30T23:17:55.387Z,100.00
2023-11-30T23:20:21.909Z,100.00
2023-11-30T23:22:48.353Z,100.00
2023-11-30T23:25:14.772Z,100.00
2023-11-30T23:27:42.588Z,100.00
2023-11-30T23:30:09.448Z,100.00
2023-11-30T23:32:35.911Z,100.00
2023-11-30T23:35:02.354Z,100.00
2023-11-30T23:37:28.781Z,100.00
2023-11-30T23:39:55.208Z,100.00
2023-11-30T23:42:21.636Z,100.00
2023-11-30T23:44:49.475Z,100.00
2023-11-30T23:47:15.913Z,100.00
2023-11-30T23:49:42.361Z,100.00
2023-11-30T23:52:08.846Z,100.00
2023-11-30T23:54:35.407Z,100.00
2023-11-30T23:57:01.866Z,100.00
2023-11-30T23:59:28.304Z,100.00
